createdAt,value
2022-11-14T00:01:13.456Z,25.37
2022-11-14T00:03:41.746Z,23.03
2022-11-14T00:06:09.319Z,32.13
2022-11-14T00:08:36.400Z,25.90
2022-11-14T00:11:03.949Z,27.00
2022-11-14T00:13:30.931Z,26.13
2022-11-14T00:15:57.921Z,25.30
2022-11-14T00:18:24.965Z,27.57
2022-11-14T00:20:53.986Z,27.10
2022-11-14T00:23:22.049Z,28.33
2022-11-14T00:25:49.649Z,27.50
2022-11-14T00:28:16.920Z,27.87
2022-11-14T00:30:47.996Z,28.43
2022-11-14T00:33:20.132Z,32.23
2022-11-14T00:35:54.532Z,30.30
2022-11-14T00:38:22.391Z,27.27
2022-11-14T00:40:49.338Z,26.27
2022-11-14T00:43:16.395Z,24.87
2022-11-14T00:45:44.726Z,28.33
2022-11-14T00:48:11.775Z,28.77
2022-11-14T00:50:38.810Z,27.30
2022-11-14T00:53:07.334Z,31.70
2022-11-14T00:55:34.288Z,28.17
2022-11-14T00:58:01.459Z,27.37
2022-11-14T01:00:28.582Z,27.83
2022-11-14T01:02:56.828Z,30.13
2022-11-14T01:05:24.626Z,27.37
2022-11-14T01:07:52.002Z,26.83
2022-11-14T01:10:21.045Z,25.83
2022-11-14T01:12:48.457Z,26.30
2022-11-14T01:15:15.468Z,26.77
2022-11-14T01:17:42.425Z,28.40
2022-11-14T01:20:09.882Z,25.20
2022-11-14T01:22:36.796Z,23.83
2022-11-14T01:25:04.372Z,26.83
2022-11-14T01:27:32.787Z,24.13
2022-11-14T01:29:59.760Z,26.80
2022-11-14T01:32:27.304Z,26.63
2022-11-14T01:34:54.547Z,28.13
2022-11-14T01:37:21.905Z,29.03
2022-11-14T01:39:48.967Z,27.53
2022-11-14T01:42:17.617Z,29.23
2022-11-14T01:44:49.143Z,28.40
2022-11-14T01:47:22.375Z,26.27
2022-11-14T01:49:54.606Z,25.37
2022-11-14T01:52:26.561Z,28.77
2022-11-14T01:54:58.708Z,27.57
2022-11-14T01:57:31.152Z,28.33
2022-11-14T02:00:06.067Z,26.43
2022-11-14T02:02:33.169Z,26.10
2022-11-14T02:05:06.722Z,25.13
2022-11-14T02:07:39.827Z,24.90
2022-11-14T02:10:11.295Z,28.00
2022-11-14T02:12:38.534Z,25.87
2022-11-14T02:15:09.958Z,25.23
2022-11-14T02:17:37.064Z,28.10
2022-11-14T02:20:19.017Z,27.27
2022-11-14T02:22:45.927Z,25.57
2022-11-14T02:25:18.502Z,25.97
2022-11-14T02:27:45.584Z,25.30
2022-11-14T02:30:18.333Z,27.63
2022-11-14T02:33:09.548Z,25.70
2022-11-14T02:35:33.928Z,27.40
2022-11-14T02:38:00.932Z,25.40
2022-11-14T02:40:27.853Z,28.90
2022-11-14T02:42:54.801Z,26.13
2022-11-14T02:45:21.867Z,26.07
2022-11-14T02:47:48.855Z,30.07
2022-11-14T02:50:16.610Z,27.27
2022-11-14T02:52:44.845Z,27.10
2022-11-14T02:55:12.520Z,28.57
2022-11-14T02:57:39.656Z,28.07
2022-11-14T03:00:14.370Z,27.97
2022-11-14T03:02:42.257Z,28.00
2022-11-14T03:05:09.799Z,24.83
2022-11-14T03:07:36.805Z,26.13
2022-11-14T03:10:06.939Z,26.10
2022-11-14T03:12:33.964Z,33.20
2022-11-14T03:15:00.948Z,26.93
2022-11-14T03:17:32.115Z,28.40
2022-11-14T03:19:59.137Z,30.20
2022-11-14T03:22:26.299Z,31.80
2022-11-14T03:24:53.609Z,30.50
2022-11-14T03:27:22.085Z,26.80
2022-11-14T03:29:49.307Z,30.00
2022-11-14T03:32:16.559Z,27.43
2022-11-14T03:34:43.497Z,28.77
2022-11-14T03:37:10.943Z,26.90
2022-11-14T03:39:37.865Z,26.80
2022-11-14T03:42:05.070Z,26.87
2022-11-14T03:44:33.332Z,29.60
2022-11-14T03:47:00.311Z,29.50
2022-11-14T03:49:27.400Z,28.10
2022-11-14T03:51:54.329Z,29.30
2022-11-14T03:54:21.312Z,30.00
2022-11-14T03:56:48.388Z,28.93
2022-11-14T03:59:15.319Z,26.47
2022-11-14T04:01:43.582Z,30.87
2022-11-14T04:04:12.381Z,28.87
2022-11-14T04:06:39.314Z,29.67
2022-11-14T04:09:06.586Z,29.37
2022-11-14T04:11:33.535Z,30.03
2022-11-14T04:14:00.512Z,28.07
2022-11-14T04:16:27.549Z,30.50
2022-11-14T04:18:55.834Z,30.17
2022-11-14T04:21:22.745Z,32.83
2022-11-14T04:23:49.766Z,28.53
2022-11-14T04:26:16.706Z,30.37
2022-11-14T04:28:43.756Z,31.70
2022-11-14T04:31:10.856Z,29.97
2022-11-14T04:33:37.810Z,30.50
2022-11-14T04:36:07.228Z,31.93
2022-11-14T04:38:34.170Z,31.27
2022-11-14T04:41:01.110Z,31.93
2022-11-14T04:43:28.075Z,32.00
2022-11-14T04:45:54.999Z,31.70
2022-11-14T04:48:22.007Z,33.47
2022-11-14T04:50:48.923Z,34.47
2022-11-14T04:53:17.287Z,29.23
2022-11-14T04:55:45.597Z,31.60
2022-11-14T04:58:12.563Z,33.27
2022-11-14T05:00:39.831Z,35.03
2022-11-14T05:03:06.734Z,32.37
2022-11-14T05:05:35.957Z,31.90
2022-11-14T05:08:06.324Z,34.93
2022-11-14T05:10:34.693Z,27.13
2022-11-14T05:13:02.310Z,33.47
2022-11-14T05:15:29.287Z,29.93
2022-11-14T05:17:57.723Z,31.67
2022-11-14T05:20:24.734Z,31.97
2022-11-14T05:22:54.289Z,30.83
2022-11-14T05:25:21.855Z,33.33
2022-11-14T05:27:50.199Z,31.90
2022-11-14T05:30:17.880Z,30.73
2022-11-14T05:32:45.019Z,32.43
2022-11-14T05:35:12.137Z,33.23
2022-11-14T05:37:39.229Z,36.43
2022-11-14T05:40:07.174Z,32.53
2022-11-14T05:42:34.125Z,31.03
2022-11-14T05:45:02.496Z,33.80
2022-11-14T05:47:29.454Z,32.83
2022-11-14T05:49:56.428Z,34.00
2022-11-14T05:52:23.356Z,32.47
2022-11-14T05:54:50.323Z,32.83
2022-11-14T05:57:17.297Z,34.97
2022-11-14T05:59:44.306Z,34.93
2022-11-14T06:02:12.642Z,32.73
2022-11-14T06:04:39.664Z,31.40
2022-11-14T06:07:06.769Z,27.83
2022-11-14T06:09:33.721Z,35.87
2022-11-14T06:12:00.659Z,32.67
2022-11-14T06:14:27.566Z,36.80
2022-11-14T06:16:54.504Z,37.23
2022-11-14T06:19:22.778Z,35.17
2022-11-14T06:21:49.781Z,34.93
2022-11-14T06:24:16.999Z,34.00
2022-11-14T06:26:43.992Z,33.73
2022-11-14T06:29:11.480Z,36.23
2022-11-14T06:31:38.469Z,33.67
2022-11-14T06:34:06.159Z,35.10
2022-11-14T06:36:34.490Z,35.20
2022-11-14T06:39:01.450Z,35.27
2022-11-14T06:41:28.435Z,36.07
2022-11-14T06:43:55.480Z,36.93
2022-11-14T06:46:23.681Z,36.83
2022-11-14T06:48:52.435Z,36.70
2022-11-14T06:51:19.745Z,35.70
2022-11-14T06:53:48.076Z,35.87
2022-11-14T06:56:17.588Z,36.87
2022-11-14T06:58:47.551Z,40.40
2022-11-14T07:01:17.606Z,37.83
2022-11-14T07:03:45.962Z,38.80
2022-11-14T07:06:15.978Z,34.57
2022-11-14T07:08:43.047Z,40.27
2022-11-14T07:11:22.587Z,35.10
2022-11-14T07:13:49.766Z,36.13
2022-11-14T07:16:17.146Z,35.57
2022-11-14T07:18:44.649Z,36.87
2022-11-14T07:21:13.317Z,38.73
2022-11-14T07:23:48.229Z,36.80
2022-11-14T07:26:20.475Z,38.27
2022-11-14T07:28:53.620Z,40.87
2022-11-14T07:31:25.130Z,38.60
2022-11-14T07:33:52.216Z,39.97
2022-11-14T07:36:19.323Z,42.93
2022-11-14T07:38:47.353Z,39.70
2022-11-14T07:41:17.396Z,40.77
2022-11-14T07:43:45.060Z,39.83
2022-11-14T07:46:15.502Z,36.73
2022-11-14T07:48:43.523Z,40.27
2022-11-14T07:51:18.518Z,40.83
2022-11-14T07:53:46.188Z,39.20
2022-11-14T07:56:13.552Z,41.43
2022-11-14T07:58:42.294Z,41.90
2022-11-14T08:01:13.024Z,39.07
2022-11-14T08:03:45.594Z,36.83
2022-11-14T08:06:15.656Z,40.53
2022-11-14T08:08:42.925Z,42.63
2022-11-14T08:11:10.443Z,37.33
2022-11-14T08:13:37.718Z,42.30
2022-11-14T08:16:13.254Z,39.80
2022-11-14T08:18:41.388Z,39.13
2022-11-14T08:21:08.738Z,43.23
2022-11-14T08:23:35.965Z,36.97
2022-11-14T08:26:03.232Z,43.50
2022-11-14T08:28:30.551Z,38.23
2022-11-14T08:31:00.461Z,42.13
2022-11-14T08:33:29.210Z,44.23
2022-11-14T08:35:56.159Z,44.10
2022-11-14T08:38:23.176Z,39.20
2022-11-14T08:40:50.122Z,39.87
2022-11-14T08:43:17.057Z,38.43
2022-11-14T08:45:44.208Z,40.27
2022-11-14T08:48:14.354Z,42.87
2022-11-14T08:50:45.819Z,39.37
2022-11-14T08:53:12.786Z,37.90
2022-11-14T08:55:44.183Z,37.23
2022-11-14T08:58:11.592Z,43.10
2022-11-14T09:00:38.579Z,38.90
2022-11-14T09:03:08.276Z,39.20
2022-11-14T09:05:38.604Z,40.00
2022-11-14T09:08:07.710Z,43.67
2022-11-14T09:10:35.140Z,40.13
2022-11-14T09:13:02.770Z,36.37
2022-11-14T09:15:30.647Z,41.40
2022-11-14T09:17:58.167Z,36.33
2022-11-14T09:20:31.670Z,42.07
2022-11-14T09:23:01.373Z,35.67
2022-11-14T09:25:30.700Z,32.50
2022-11-14T09:27:58.718Z,36.17
2022-11-14T09:30:25.831Z,36.73
2022-11-14T09:32:52.786Z,37.67
2022-11-14T09:35:19.884Z,36.17
2022-11-14T09:37:46.854Z,38.40
2022-11-14T09:40:14.372Z,37.07
2022-11-14T09:43:17.883Z,39.53
2022-11-14T09:45:52.441Z,41.03
2022-11-14T09:48:25.826Z,35.63
2022-11-14T09:51:07.066Z,37.07
2022-11-14T09:53:40.676Z,38.17
2022-11-14T09:56:12.863Z,39.33
2022-11-14T09:58:42.828Z,38.47
2022-11-14T10:01:17.793Z,34.60
2022-11-14T10:03:58.454Z,40.03
2022-11-14T10:06:33.482Z,37.37
2022-11-14T10:09:30.188Z,36.17
2022-11-14T10:12:13.166Z,35.07
2022-11-14T10:15:10.326Z,35.73
2022-11-14T10:18:07.122Z,35.57
2022-11-14T10:20:44.870Z,37.90
2022-11-14T10:23:40.219Z,38.83
2022-11-14T10:26:15.480Z,38.53
2022-11-14T10:29:06.521Z,34.97
2022-11-14T10:31:51.969Z,38.30
2022-11-14T10:34:34.210Z,37.23
2022-11-14T10:37:17.080Z,34.63
2022-11-14T10:39:53.184Z,39.03
2022-11-14T10:42:29.845Z,36.07
2022-11-14T10:45:04.310Z,37.77
2022-11-14T10:47:40.893Z,34.37
2022-11-14T10:50:19.523Z,31.83
2022-11-14T10:52:52.375Z,34.60
2022-11-14T10:55:24.864Z,36.03
2022-11-14T10:58:11.005Z,30.60
2022-11-14T11:00:38.019Z,36.90
2022-11-14T11:03:07.509Z,30.03
2022-11-14T11:05:50.683Z,37.37
2022-11-14T11:08:43.588Z,37.70
2022-11-14T11:11:36.148Z,34.07
2022-11-14T11:14:03.632Z,33.77
2022-11-14T11:16:30.677Z,34.40
2022-11-14T11:19:21.340Z,31.87
2022-11-14T11:21:51.804Z,33.73
2022-11-14T11:24:33.130Z,31.67
2022-11-14T11:27:23.666Z,33.93
2022-11-14T11:30:10.203Z,30.40
2022-11-14T11:32:37.261Z,34.83
2022-11-14T11:35:13.588Z,36.63
2022-11-14T11:37:46.575Z,34.97
2022-11-14T11:40:20.315Z,35.00
2022-11-14T11:45:49.745Z,36.63
2022-11-14T11:48:20.306Z,35.17
2022-11-14T11:50:50.301Z,32.37
2022-11-14T11:53:24.390Z,36.53
2022-11-14T11:55:56.463Z,35.33
2022-11-14T11:58:29.503Z,32.07
2022-11-14T12:00:56.561Z,34.53
2022-11-14T12:03:27.424Z,39.27
2022-11-14T12:06:13.881Z,36.67
2022-11-14T12:08:58.230Z,33.97
2022-11-14T12:11:30.226Z,34.17
2022-11-14T12:14:39.417Z,36.57
2022-11-14T12:18:16.989Z,34.00
2022-11-14T12:21:10.166Z,37.80
2022-11-14T12:24:22.940Z,35.60
2022-11-14T12:27:17.558Z,37.87
2022-11-14T12:30:11.840Z,31.43
2022-11-14T12:32:44.838Z,32.87
2022-11-14T12:35:21.433Z,35.00
2022-11-14T12:37:55.986Z,31.90
2022-11-14T12:40:35.846Z,34.67
2022-11-14T12:43:06.738Z,34.07
2022-11-14T12:45:57.947Z,35.83
2022-11-14T12:48:33.659Z,34.57
2022-11-14T12:51:03.658Z,34.53
2022-11-14T12:53:45.113Z,33.47
2022-11-14T12:57:00.090Z,32.97
2022-11-14T12:59:40.086Z,35.83
2022-11-14T13:02:56.276Z,35.43
2022-11-14T13:05:47.383Z,31.70
2022-11-14T13:08:50.934Z,34.93
2022-11-14T13:12:03.101Z,32.67
2022-11-14T13:14:49.875Z,37.17
2022-11-14T13:17:44.943Z,31.80
2022-11-14T13:20:47.588Z,32.60
2022-11-14T13:23:56.655Z,33.20
2022-11-14T13:26:54.789Z,35.33
2022-11-14T13:29:54.251Z,33.30
2022-11-14T13:33:01.106Z,31.77
2022-11-14T13:35:51.349Z,35.23
2022-11-14T13:39:01.539Z,34.20
2022-11-14T13:42:06.090Z,32.97
2022-11-14T13:45:18.952Z,32.33
2022-11-14T13:48:19.733Z,29.63
2022-11-14T13:50:52.223Z,33.80
2022-11-14T13:53:24.495Z,33.40
2022-11-14T13:56:16.102Z,31.50
2022-11-14T13:59:14.144Z,33.80
2022-11-14T14:02:06.706Z,28.50
2022-11-14T14:04:53.272Z,29.77
2022-11-14T14:07:39.986Z,29.83
2022-11-14T14:10:24.261Z,30.57
2022-11-14T14:13:14.264Z,31.37
2022-11-14T14:15:50.173Z,29.40
2022-11-14T14:18:35.121Z,32.73
2022-11-14T14:21:17.746Z,27.47
2022-11-14T14:23:58.426Z,27.93
2022-11-14T14:26:38.072Z,34.23
2022-11-14T14:29:25.198Z,30.67
2022-11-14T14:31:52.610Z,29.93
2022-11-14T14:34:23.963Z,28.97
2022-11-14T14:36:54.179Z,31.73
2022-11-14T14:39:27.245Z,28.27
2022-11-14T14:41:58.166Z,29.53
2022-11-14T14:44:34.203Z,27.40
2022-11-14T14:47:16.575Z,30.53
2022-11-14T14:49:44.887Z,30.00
2022-11-14T14:52:28.044Z,27.73
2022-11-14T14:54:56.851Z,30.37
2022-11-14T14:57:24.311Z,31.93
2022-11-14T15:00:01.387Z,25.73
2022-11-14T15:02:29.894Z,26.87
2022-11-14T15:04:59.842Z,31.03
2022-11-14T15:07:30.481Z,25.33
2022-11-14T15:10:01.398Z,29.50
2022-11-14T15:12:32.193Z,27.50
2022-11-14T15:15:03.237Z,29.27
2022-11-14T15:17:35.666Z,28.93
2022-11-14T15:20:03.733Z,29.50
2022-11-14T15:22:30.899Z,26.73
2022-11-14T15:25:20.205Z,26.37
2022-11-14T15:27:53.259Z,26.30
2022-11-14T15:30:26.095Z,26.77
2022-11-14T15:32:55.794Z,24.13
2022-11-14T15:35:31.053Z,28.07
2022-11-14T15:41:20.758Z,28.90
2022-11-14T15:43:52.913Z,24.43
2022-11-14T15:46:46.192Z,26.03
2022-11-14T15:49:25.360Z,29.73
2022-11-14T15:51:58.433Z,26.37
2022-11-14T15:54:29.266Z,26.13
2022-11-14T15:56:59.653Z,24.63
2022-11-14T15:59:30.112Z,29.43
2022-11-14T16:02:04.313Z,25.83
2022-11-14T16:04:35.614Z,27.87
2022-11-14T16:07:02.822Z,26.63
2022-11-14T16:09:30.174Z,25.07
2022-11-14T16:11:57.401Z,24.93
2022-11-14T16:14:24.489Z,24.53
2022-11-14T16:16:51.433Z,25.13
2022-11-14T16:19:21.796Z,27.90
2022-11-14T16:21:49.080Z,28.17
2022-11-14T16:24:18.716Z,25.90
2022-11-14T16:26:46.562Z,24.93
2022-11-14T16:29:13.966Z,25.50
2022-11-14T16:31:41.630Z,28.03
2022-11-14T16:34:19.949Z,27.10
2022-11-14T16:36:48.756Z,25.67
2022-11-14T16:39:16.514Z,31.33
2022-11-14T16:41:43.940Z,30.40
2022-11-14T16:44:16.670Z,26.30
2022-11-14T16:46:44.754Z,24.57
2022-11-14T16:49:15.142Z,25.10
2022-11-14T16:51:48.149Z,26.87
2022-11-14T16:54:19.570Z,26.50
2022-11-14T16:56:47.954Z,28.20
2022-11-14T16:59:15.351Z,25.60
2022-11-14T17:01:43.368Z,26.07
2022-11-14T17:04:11.002Z,30.57
2022-11-14T17:06:38.406Z,29.67
2022-11-14T17:09:05.481Z,32.33
2022-11-14T17:11:33.958Z,28.03
2022-11-14T17:14:01.135Z,30.47
2022-11-14T17:16:28.248Z,28.67
2022-11-14T17:18:56.165Z,31.53
2022-11-14T17:21:24.527Z,31.00
2022-11-14T17:23:55.574Z,25.53
2022-11-14T17:26:23.389Z,29.40
2022-11-14T17:28:51.774Z,29.23
2022-11-14T17:31:19.209Z,29.50
2022-11-14T17:33:51.609Z,30.77
2022-11-14T17:36:18.991Z,27.47
2022-11-14T17:38:46.080Z,28.83
2022-11-14T17:41:13.165Z,30.97
2022-11-14T17:43:40.816Z,28.70
2022-11-14T17:46:15.873Z,29.20
2022-11-14T17:48:43.671Z,29.50
2022-11-14T17:51:13.817Z,28.53
2022-11-14T17:53:42.337Z,29.23
2022-11-14T17:56:13.511Z,26.63
2022-11-14T17:58:40.846Z,27.97
2022-11-14T18:01:14.942Z,24.90
2022-11-14T18:03:42.333Z,29.53
2022-11-14T18:06:12.410Z,32.53
2022-11-14T18:08:41.187Z,29.07
2022-11-14T18:11:12.091Z,29.00
2022-11-14T18:13:40.250Z,30.80
2022-11-14T18:16:13.040Z,28.07
2022-11-14T18:18:40.902Z,27.03
2022-11-14T18:21:10.192Z,28.53
2022-11-14T18:23:38.595Z,28.90
2022-11-14T18:26:11.108Z,32.77
2022-11-14T18:28:38.652Z,29.63
2022-11-14T18:31:07.379Z,26.70
2022-11-14T18:33:36.367Z,29.60
2022-11-14T18:36:08.234Z,30.13
2022-11-14T18:38:35.862Z,30.10
2022-11-14T18:41:08.271Z,31.53
2022-11-14T18:43:36.327Z,26.97
2022-11-14T18:46:10.902Z,30.77
2022-11-14T18:48:42.434Z,32.73
2022-11-14T18:51:14.385Z,30.53
2022-11-14T18:53:41.844Z,29.93
2022-11-14T18:56:11.819Z,24.90
2022-11-14T18:58:40.685Z,29.37
2022-11-14T19:01:13.632Z,26.73
2022-11-14T19:03:42.806Z,27.53
2022-11-14T19:06:12.514Z,28.57
2022-11-14T19:08:40.820Z,28.53
2022-11-14T19:11:30.171Z,27.33
2022-11-14T19:14:00.450Z,28.83
2022-11-14T19:16:29.386Z,27.30
2022-11-14T19:18:59.263Z,29.43
2022-11-14T19:21:28.114Z,28.17
2022-11-14T19:23:55.775Z,27.83
2022-11-14T19:26:25.495Z,28.50
2022-11-14T19:28:53.504Z,23.87
2022-11-14T19:31:22.840Z,23.30
2022-11-14T19:33:50.200Z,25.83
2022-11-14T19:36:45.327Z,23.63
2022-11-14T19:39:10.015Z,24.27
2022-11-14T19:41:37.302Z,25.93
2022-11-14T19:44:05.248Z,24.30
2022-11-14T19:46:32.506Z,27.63
2022-11-14T19:49:01.331Z,25.17
2022-11-14T19:51:32.741Z,22.90
2022-11-14T19:54:01.776Z,25.73
2022-11-14T19:56:29.034Z,23.00
2022-11-14T19:58:57.193Z,24.13
2022-11-14T20:01:26.603Z,24.87
2022-11-14T20:03:56.509Z,23.37
2022-11-14T20:06:27.272Z,22.90
2022-11-14T20:08:57.259Z,21.10
2022-11-14T20:11:28.277Z,24.37
2022-11-14T20:13:57.707Z,23.13
2022-11-14T20:16:28.532Z,22.87
2022-11-14T20:18:59.216Z,23.47
2022-11-14T20:21:29.460Z,22.47
2022-11-14T20:23:58.450Z,22.40
2022-11-14T20:26:26.071Z,22.03
2022-11-14T20:28:54.492Z,22.17
2022-11-14T20:31:24.773Z,21.13
2022-11-14T20:33:53.496Z,19.70
2022-11-14T20:36:23.854Z,22.40
2022-11-14T20:38:52.042Z,21.70
2022-11-14T20:41:20.886Z,20.67
2022-11-14T20:43:48.308Z,20.60
2022-11-14T20:46:18.189Z,21.67
2022-11-14T20:48:46.701Z,22.70
2022-11-14T20:51:16.608Z,20.80
2022-11-14T20:53:44.733Z,20.57
2022-11-14T20:56:13.546Z,21.83
2022-11-14T20:58:42.948Z,19.80
2022-11-14T21:01:10.732Z,22.90
2022-11-14T21:03:38.580Z,19.23
2022-11-14T21:06:07.639Z,21.20
2022-11-14T21:08:35.959Z,23.73
2022-11-14T21:11:06.555Z,21.97
2022-11-14T21:13:54.875Z,22.70
2022-11-14T21:16:27.370Z,20.97
2022-11-14T21:18:55.573Z,18.33
2022-11-14T21:21:27.118Z,19.50
2022-11-14T21:23:55.619Z,19.17
2022-11-14T21:26:25.206Z,20.63
2022-11-14T21:28:55.571Z,23.40
2022-11-14T21:31:27.469Z,20.97
2022-11-14T21:33:56.904Z,20.10
2022-11-14T21:39:14.497Z,18.80
2022-11-14T21:41:42.909Z,21.43
2022-11-14T21:44:13.165Z,19.97
2022-11-14T21:46:42.171Z,19.53
2022-11-14T21:49:09.900Z,21.07
2022-11-14T21:51:36.842Z,19.53
2022-11-14T21:54:06.161Z,20.20
2022-11-14T21:56:35.811Z,22.97
2022-11-14T21:59:14.261Z,19.67
2022-11-14T22:02:03.830Z,21.83
2022-11-14T22:04:31.803Z,21.67
2022-11-14T22:06:59.532Z,24.93
2022-11-14T22:09:27.946Z,21.57
2022-11-14T22:11:55.485Z,20.53
2022-11-14T22:14:22.615Z,19.40
2022-11-14T22:16:51.206Z,23.33
2022-11-14T22:19:18.903Z,20.50
2022-11-14T22:21:46.098Z,21.87
2022-11-14T22:24:13.029Z,20.83
2022-11-14T22:26:41.225Z,21.07
2022-11-14T22:29:09.141Z,17.27
2022-11-14T22:31:37.998Z,21.23
2022-11-14T22:34:06.723Z,20.43
2022-11-14T22:36:33.810Z,21.00
2022-11-14T22:39:01.075Z,19.17
2022-11-14T22:41:33.028Z,23.17
2022-11-14T22:44:01.430Z,19.47
2022-11-14T22:46:29.192Z,18.80
2022-11-14T22:48:56.520Z,20.50
2022-11-14T22:51:27.241Z,18.57
2022-11-14T22:53:57.199Z,18.07
2022-11-14T22:56:27.421Z,18.47
2022-11-14T22:58:55.127Z,20.80
2022-11-14T23:01:24.421Z,19.40
2022-11-14T23:03:54.966Z,18.43
2022-11-14T23:06:24.368Z,18.73
2022-11-14T23:08:52.157Z,21.83
2022-11-14T23:11:22.338Z,17.37
2022-11-14T23:13:51.974Z,21.43
2022-11-14T23:16:22.573Z,18.97
2022-11-14T23:18:50.920Z,20.37
2022-11-14T23:21:20.931Z,18.63
2022-11-14T23:23:54.529Z,19.97
2022-11-14T23:26:22.499Z,19.27
2022-11-14T23:28:49.926Z,18.53
2022-11-14T23:31:20.527Z,18.10
2022-11-14T23:33:48.818Z,23.10
2022-11-14T23:36:16.330Z,18.87
2022-11-14T23:38:43.486Z,18.50
2022-11-14T23:41:17.415Z,19.73
2022-11-14T23:43:45.142Z,21.17
2022-11-14T23:46:13.154Z,18.87
2022-11-14T23:48:40.674Z,22.07
2022-11-14T23:51:08.091Z,19.80
2022-11-14T23:53:35.070Z,19.60
2022-11-14T23:56:02.555Z,20.47
2022-11-14T23:58:31.014Z,17.43
